Time;durP1;ratioP1;P1;durP2;ratioP2;P2;SDS_P1;SDS_P2;PMS_P1;PMS_P2;Temp;Humidity;BMP_temperature;BMP_pressure;BME280_temperature;BME280_humidity;BME280_pressure;Samples;Min_cycle;Max_cycle;Signal;HPM_P1;HPM_P2
2021/12/07 00:00:49;;;;;;;7.07;6.67;;;8.00;81.00;;;;;;5043036;28;20398;-80
2021/12/07 00:03:15;;;;;;;7.10;6.80;;;8.00;81.80;;;;;;5048465;28;20091;-80
2021/12/07 00:05:41;;;;;;;8.10;7.70;;;8.00;81.00;;;;;;5044936;28;20033;-80
2021/12/07 00:08:07;;;;;;;7.10;6.80;;;8.00;81.00;;;;;;5030246;28;20068;-80
2021/12/07 00:10:34;;;;;;;7.13;6.83;;;8.00;81.00;;;;;;5050401;28;20033;-80
2021/12/07 00:13:00;;;;;;;7.53;7.13;;;8.00;81.00;;;;;;5043535;28;20033;-80
2021/12/07 00:15:29;;;;;;;7.30;6.90;;;8.00;81.10;;;;;;5042377;28;20041;-80
2021/12/07 00:17:56;;;;;;;7.05;6.75;;;7.90;81.10;;;;;;5047475;28;20191;-80
2021/12/07 00:20:22;;;;;;;7.18;6.88;;;7.90;81.10;;;;;;5047235;28;20509;-80
2021/12/07 00:22:50;;;;;;;6.72;6.43;;;7.90;81.10;;;;;;5049757;28;20462;-80
2021/12/07 00:25:16;;;;;;;7.40;7.00;;;7.90;81.10;;;;;;5046554;28;20045;-80
2021/12/07 00:27:42;;;;;;;7.83;7.23;;;7.90;81.10;;;;;;5045105;28;20044;-80
2021/12/07 00:30:09;;;;;;;8.07;7.47;;;7.80;81.10;;;;;;5046665;28;20029;-80
2021/12/07 00:32:40;;;;;;;7.67;7.27;;;7.80;81.90;;;;;;5048092;28;20478;-80
2021/12/07 00:37:41;;;;;;;7.67;7.17;;;7.80;81.20;;;;;;5033256;28;20071;-80
2021/12/07 00:40:08;;;;;;;6.70;6.40;;;7.80;81.30;;;;;;5033065;28;20029;-80
2021/12/07 00:42:34;;;;;;;6.90;6.60;;;7.70;81.20;;;;;;5015690;28;20041;-80
2021/12/07 00:45:01;;;;;;;8.40;7.70;;;7.70;81.20;;;;;;5046793;28;20044;-80
2021/12/07 00:47:27;;;;;;;11.80;8.87;;;7.70;81.30;;;;;;5046593;28;20402;-80
2021/12/07 00:49:53;;;;;;;7.13;6.67;;;7.70;81.30;;;;;;5048177;28;20033;-80
2021/12/07 00:52:19;;;;;;;6.80;6.40;;;7.70;81.20;;;;;;5049240;28;20389;-80
2021/12/07 00:54:45;;;;;;;7.43;7.03;;;7.70;81.20;;;;;;5028420;28;20304;-80
2021/12/07 00:57:12;;;;;;;7.00;6.68;;;7.70;81.20;;;;;;5026168;28;20063;-80
2021/12/07 00:59:38;;;;;;;7.43;7.03;;;7.70;81.20;;;;;;5038646;28;20029;-80
2021/12/07 01:02:04;;;;;;;11.70;8.00;;;7.70;81.20;;;;;;5048244;28;20052;-80
2021/12/07 01:04:31;;;;;;;7.93;7.53;;;7.70;81.20;;;;;;5030448;28;20052;-81
2021/12/07 01:07:06;;;;;;;7.18;6.78;;;7.60;81.20;;;;;;5030302;28;20032;-80
2021/12/07 01:25:26;;;;;;;7.60;7.20;;;7.50;81.20;;;;;;5053741;28;20040;-80
2021/12/07 01:27:54;;;;;;;7.73;7.27;;;7.50;81.20;;;;;;5047550;28;20029;-80
2021/12/07 01:30:35;;;;;;;6.60;6.30;;;7.50;81.20;;;;;;5032123;28;20045;-80
2021/12/07 01:36:13;;;;;;;6.83;6.53;;;7.40;81.20;;;;;;5013136;28;20040;-80
2021/12/07 01:45:08;;;;;;;7.20;6.73;;;7.50;81.30;;;;;;4978131;28;20053;-80
2021/12/07 01:47:19;;;;;;;6.90;6.60;;;7.50;81.20;;;;;;4981645;28;20034;-80
2021/12/07 02:00:11;;;;;;;6.87;6.57;;;7.40;81.20;;;;;;4986505;28;20135;-81
2021/12/07 02:02:37;;;;;;;14.03;6.93;;;7.40;81.20;;;;;;4978111;28;20423;-80
2021/12/07 02:05:04;;;;;;;7.37;6.97;;;7.40;81.20;;;;;;4960588;28;20511;-80
2021/12/07 02:07:30;;;;;;;6.83;6.43;;;7.40;81.20;;;;;;4993092;28;20046;-80
2021/12/07 02:10:02;;;;;;;6.93;6.63;;;7.40;81.20;;;;;;4992641;28;20037;-80
2021/12/07 02:12:29;;;;;;;7.33;6.63;;;7.40;81.20;;;;;;4991734;28;20039;-80
2021/12/07 02:14:55;;;;;;;6.87;6.57;;;7.40;81.20;;;;;;4971984;28;20491;-80
2021/12/07 02:17:24;;;;;;;7.73;7.33;;;7.40;81.20;;;;;;4972803;28;20110;-80
2021/12/07 02:19:50;;;;;;;6.83;6.53;;;7.40;81.20;;;;;;5034869;28;20056;-80
2021/12/07 02:22:17;;;;;;;7.43;7.03;;;7.40;81.30;;;;;;5031315;28;20047;-82
2021/12/07 02:24:44;;;;;;;6.97;6.67;;;7.30;81.20;;;;;;5049176;28;20033;-80
2021/12/07 02:27:10;;;;;;;6.80;6.50;;;7.30;81.20;;;;;;5049233;28;20036;-80
2021/12/07 02:29:36;;;;;;;7.03;6.73;;;7.30;81.30;;;;;;5050759;28;20021;-80
2021/12/07 02:32:04;;;;;;;7.00;6.67;;;7.30;81.30;;;;;;5030469;28;20056;-80
2021/12/07 02:34:30;;;;;;;6.73;6.43;;;7.20;81.30;;;;;;5027488;28;20382;-80
2021/12/07 02:36:56;;;;;;;7.63;7.20;;;7.20;81.40;;;;;;5049656;28;20205;-80
2021/12/07 02:39:33;;;;;;;7.03;6.57;;;7.20;81.50;;;;;;5031240;28;20402;-80
2021/12/07 02:42:00;;;;;;;6.40;6.10;;;7.10;81.40;;;;;;5048587;28;20025;-80
2021/12/07 02:44:26;;;;;;;8.03;7.23;;;7.10;81.50;;;;;;5049579;28;20037;-80
2021/12/07 02:46:53;;;;;;;20.93;7.90;;;7.00;81.50;;;;;;5049753;28;20083;-80
2021/12/07 02:49:20;;;;;;;7.77;7.23;;;7.00;81.50;;;;;;5050768;28;20041;-80
2021/12/07 02:51:47;;;;;;;7.13;6.53;;;7.00;81.60;;;;;;5035975;28;20045;-80
2021/12/07 02:54:13;;;;;;;6.57;6.27;;;6.90;81.60;;;;;;5048714;28;20036;-80
2021/12/07 02:56:39;;;;;;;6.67;6.37;;;6.90;81.70;;;;;;5047073;28;20029;-80
2021/12/07 02:59:05;;;;;;;7.00;6.60;;;6.90;81.60;;;;;;5033331;28;20068;-80
2021/12/07 03:01:34;;;;;;;6.90;6.40;;;6.90;81.70;;;;;;5049163;28;20041;-80
2021/12/07 03:04:10;;;;;;;6.87;6.47;;;6.80;81.60;;;;;;5042753;28;20389;-80
2021/12/07 03:06:57;;;;;;;7.13;6.73;;;6.80;81.60;;;;;;5039730;28;20041;-80
2021/12/07 03:09:52;;;;;;;6.13;5.83;;;6.80;81.60;;;;;;5042070;28;20051;-80
2021/12/07 03:28:29;;;;;;;6.07;5.77;;;6.50;81.60;;;;;;5042178;28;20047;-80
2021/12/07 03:30:55;;;;;;;6.83;6.53;;;6.50;81.70;;;;;;5051687;28;20033;-80
2021/12/07 03:33:21;;;;;;;6.37;6.07;;;6.50;81.70;;;;;;5047439;28;20032;-80
2021/12/07 03:35:47;;;;;;;7.17;6.77;;;6.50;81.70;;;;;;5048263;28;20029;-80
2021/12/07 03:38:13;;;;;;;5.90;5.60;;;6.50;81.70;;;;;;5047548;28;20060;-80
2021/12/07 03:40:39;;;;;;;5.93;5.63;;;6.50;81.80;;;;;;5051291;28;20033;-80
2021/12/07 03:43:06;;;;;;;6.67;5.97;;;6.50;81.80;;;;;;5048118;28;20504;-80
2021/12/07 03:45:32;;;;;;;5.33;5.13;;;6.40;81.80;;;;;;5048473;28;20045;-80
2021/12/07 03:47:58;;;;;;;6.20;5.90;;;6.40;81.80;;;;;;5045771;28;20036;-80
2021/12/07 03:50:25;;;;;;;6.20;5.90;;;6.40;81.80;;;;;;5049140;28;20021;-80
2021/12/07 03:52:51;;;;;;;6.60;6.30;;;6.40;81.70;;;;;;5034131;28;20524;-79
2021/12/07 03:55:17;;;;;;;5.70;5.40;;;6.40;81.80;;;;;;5031968;28;20045;-80
2021/12/07 03:57:43;;;;;;;6.20;5.90;;;6.40;81.80;;;;;;5046008;28;20391;-80
2021/12/07 04:00:13;;;;;;;6.37;6.07;;;6.40;81.80;;;;;;5045434;28;20043;-80
2021/12/07 04:02:40;;;;;;;6.30;6.00;;;6.30;81.70;;;;;;5030803;28;20052;-80
2021/12/07 04:05:12;;;;;;;6.27;5.97;;;6.30;81.70;;;;;;5049019;28;20377;-80
2021/12/07 04:07:38;;;;;;;6.40;6.10;;;6.30;81.70;;;;;;5033100;28;20048;-79
2021/12/07 04:10:06;;;;;;;6.70;6.20;;;6.30;81.70;;;;;;5048469;28;20041;-79
2021/12/07 04:12:33;;;;;;;6.10;5.80;;;6.40;81.70;;;;;;5030413;28;20048;-80
2021/12/07 04:14:59;;;;;;;6.40;6.00;;;6.40;81.70;;;;;;5047755;28;20366;-80
2021/12/07 04:17:25;;;;;;;6.37;6.07;;;6.40;81.70;;;;;;5044239;28;20040;-80
2021/12/07 04:19:51;;;;;;;7.23;6.70;;;6.40;81.60;;;;;;5032214;28;20041;-79
2021/12/07 04:22:17;;;;;;;6.10;5.80;;;6.40;81.60;;;;;;5033689;28;20078;-80
2021/12/07 04:24:43;;;;;;;6.33;6.03;;;6.40;81.60;;;;;;5044595;28;20021;-79
2021/12/07 04:27:09;;;;;;;7.20;6.10;;;6.40;81.50;;;;;;5047170;28;20036;-79
2021/12/07 04:29:35;;;;;;;8.23;6.57;;;6.40;81.50;;;;;;5049287;28;20496;-80
2021/12/07 04:32:01;;;;;;;6.30;6.00;;;6.40;81.50;;;;;;5048745;28;20025;-80
2021/12/07 04:34:27;;;;;;;6.20;5.90;;;6.40;81.50;;;;;;5052706;28;20028;-80
2021/12/07 04:36:54;;;;;;;6.27;5.97;;;6.40;81.50;;;;;;5048508;28;20515;-79
2021/12/07 04:39:20;;;;;;;6.13;5.83;;;6.40;81.50;;;;;;5050184;28;20044;-80
2021/12/07 04:41:48;;;;;;;6.50;6.20;;;6.40;81.50;;;;;;5049468;28;20028;-80
2021/12/07 04:44:14;;;;;;;7.00;6.60;;;6.40;81.50;;;;;;5052549;28;20489;-80
2021/12/07 04:46:49;;;;;;;6.53;6.23;;;6.40;81.50;;;;;;5050432;28;20036;-80
2021/12/07 04:57:38;;;;;;;7.13;6.63;;;6.30;81.50;;;;;;5051751;28;20049;-80
2021/12/07 05:00:18;;;;;;;6.30;6.00;;;6.30;81.40;;;;;;5049333;28;20482;-80
2021/12/07 05:02:48;;;;;;;7.57;7.07;;;6.30;81.50;;;;;;5050390;28;20025;-80
2021/12/07 05:05:16;;;;;;;6.45;6.15;;;6.30;81.50;;;;;;5018181;28;20052;-80
2021/12/07 05:07:48;;;;;;;6.77;6.47;;;6.30;81.50;;;;;;5033606;28;20382;-80
2021/12/07 05:12:56;;;;;;;5.87;5.57;;;6.30;81.40;;;;;;5051457;28;20488;-80
2021/12/07 05:15:30;;;;;;;6.78;6.47;;;6.30;81.40;;;;;;5049396;28;20033;-80
2021/12/07 05:39:39;;;;;;;6.47;5.70;;;6.30;81.40;;;;;;5050104;28;20048;-80
2021/12/07 05:42:05;;;;;;;6.10;5.70;;;6.30;81.30;;;;;;5049610;28;20478;-80
2021/12/07 05:44:31;;;;;;;6.27;5.97;;;6.40;81.40;;;;;;5048972;28;20052;-80
2021/12/07 05:46:57;;;;;;;6.30;6.00;;;6.40;81.30;;;;;;5049180;28;20045;-80
2021/12/07 05:49:23;;;;;;;6.70;6.20;;;6.40;81.40;;;;;;5050537;28;20037;-80
2021/12/07 05:51:49;;;;;;;6.90;6.57;;;6.40;81.20;;;;;;5032317;28;20037;-79
2021/12/07 05:54:16;;;;;;;7.23;6.83;;;6.40;81.20;;;;;;5048707;28;20029;-80
2021/12/07 05:56:42;;;;;;;6.27;5.97;;;6.40;81.20;;;;;;5049816;28;20029;-79
2021/12/07 05:59:08;;;;;;;6.33;5.93;;;6.40;81.20;;;;;;5032643;28;20045;-79
2021/12/07 06:01:34;;;;;;;6.17;5.87;;;6.40;81.30;;;;;;5032949;28;20498;-79
2021/12/07 06:04:00;;;;;;;6.43;6.13;;;6.40;81.20;;;;;;5032326;28;20048;-80
2021/12/07 06:06:26;;;;;;;6.53;6.23;;;6.40;81.30;;;;;;5032150;28;20474;-80
2021/12/07 06:08:52;;;;;;;6.27;5.97;;;6.40;81.30;;;;;;5049113;28;20029;-80
2021/12/07 06:11:21;;;;;;;6.57;6.27;;;6.40;81.30;;;;;;5049577;28;20363;-79
2021/12/07 06:13:47;;;;;;;6.73;6.43;;;6.40;81.40;;;;;;5049970;28;20037;-81
2021/12/07 06:16:15;;;;;;;5.93;5.63;;;6.40;81.30;;;;;;5031009;28;20033;-81
2021/12/07 06:18:42;;;;;;;6.10;5.80;;;6.40;81.30;;;;;;5050336;28;20052;-81
2021/12/07 06:21:08;;;;;;;6.77;6.17;;;6.40;81.20;;;;;;5052721;28;20024;-81
2021/12/07 06:23:34;;;;;;;7.50;6.00;;;6.40;81.30;;;;;;5052110;28;20040;-81
2021/12/07 06:26:00;;;;;;;6.10;5.80;;;6.40;81.20;;;;;;5052513;28;20040;-85
2021/12/07 06:28:26;;;;;;;6.53;6.23;;;6.40;81.30;;;;;;5030309;28;20407;-81
2021/12/07 06:30:52;;;;;;;6.73;6.33;;;6.40;81.30;;;;;;5032187;28;20029;-81
2021/12/07 06:33:20;;;;;;;6.83;6.53;;;6.40;81.40;;;;;;5047500;28;20479;-81
2021/12/07 06:35:47;;;;;;;6.27;5.97;;;6.40;81.40;;;;;;5037814;28;20088;-83
2021/12/07 06:38:13;;;;;;;6.63;6.33;;;6.40;81.40;;;;;;5030653;28;20041;-83
2021/12/07 06:40:40;;;;;;;6.33;6.03;;;6.40;81.40;;;;;;5010291;28;20039;-82
2021/12/07 06:43:06;;;;;;;6.27;5.97;;;6.50;81.40;;;;;;5040423;28;20033;-83
2021/12/07 06:45:32;;;;;;;6.20;5.90;;;6.50;81.40;;;;;;5026150;28;20109;-83
2021/12/07 06:47:58;;;;;;;6.43;6.13;;;6.50;81.30;;;;;;5037137;28;20067;-81
2021/12/07 06:50:24;;;;;;;6.60;6.30;;;6.50;81.30;;;;;;5040883;28;20036;-82
2021/12/07 06:52:52;;;;;;;6.77;6.47;;;6.50;81.30;;;;;;5017317;28;20041;-80
2021/12/07 06:55:18;;;;;;;7.13;6.80;;;6.50;81.30;;;;;;5037637;28;20470;-83
2021/12/07 06:57:44;;;;;;;7.17;6.70;;;6.50;81.30;;;;;;5041669;28;20029;-81
2021/12/07 07:00:11;;;;;;;6.43;6.13;;;6.50;81.20;;;;;;5029426;28;20045;-82
2021/12/07 07:02:37;;;;;;;6.23;5.93;;;6.50;81.20;;;;;;5029913;28;20493;-79
2021/12/07 07:05:04;;;;;;;7.30;6.90;;;6.50;81.30;;;;;;5031751;28;20041;-87
2021/12/07 07:07:33;;;;;;;6.40;6.10;;;6.50;81.30;;;;;;5003718;28;20038;-82
2021/12/07 07:09:59;;;;;;;7.07;6.73;;;6.50;81.30;;;;;;5050269;28;20080;-81
2021/12/07 07:12:25;;;;;;;7.33;6.93;;;6.50;81.40;;;;;;5051069;28;20397;-81
2021/12/07 07:14:51;;;;;;;6.77;6.47;;;6.50;81.40;;;;;;5052083;28;20029;-81
2021/12/07 07:17:17;;;;;;;7.10;6.80;;;6.50;81.40;;;;;;5051760;28;20040;-82
2021/12/07 07:19:44;;;;;;;6.77;6.47;;;6.50;81.30;;;;;;5052007;28;20037;-81
2021/12/07 07:22:10;;;;;;;7.27;6.87;;;6.60;81.40;;;;;;5035195;28;20490;-81
2021/12/07 07:24:36;;;;;;;7.10;6.70;;;6.60;81.40;;;;;;5034637;28;20519;-82
2021/12/07 07:27:02;;;;;;;5.87;5.57;;;6.60;81.40;;;;;;5034211;28;20029;-83
2021/12/07 07:29:28;;;;;;;6.50;6.20;;;6.60;81.40;;;;;;5034422;28;20036;-81
2021/12/07 07:31:55;;;;;;;6.53;6.23;;;6.60;81.50;;;;;;5050178;28;20033;-81
2021/12/07 07:34:21;;;;;;;6.70;6.40;;;6.60;81.50;;;;;;5051986;28;20049;-82
2021/12/07 07:36:47;;;;;;;6.63;6.33;;;6.60;81.50;;;;;;5033835;28;20041;-81
2021/12/07 07:39:13;;;;;;;7.23;6.93;;;6.60;81.50;;;;;;5034163;28;20072;-81
2021/12/07 07:41:39;;;;;;;6.57;6.27;;;6.70;81.50;;;;;;5034262;28;20036;-81
2021/12/07 07:44:05;;;;;;;6.67;6.37;;;6.70;81.50;;;;;;5050367;28;20052;-80
2021/12/07 07:46:32;;;;;;;7.20;6.80;;;6.70;81.40;;;;;;5051347;28;20368;-80
2021/12/07 07:49:00;;;;;;;15.43;7.33;;;6.70;81.40;;;;;;5050600;28;20048;-82
2021/12/07 07:51:26;;;;;;;6.83;6.53;;;6.70;81.30;;;;;;5033905;28;20045;-80
2021/12/07 07:53:54;;;;;;;6.73;6.43;;;6.80;81.40;;;;;;5034124;28;20048;-82
2021/12/07 07:56:21;;;;;;;6.90;6.60;;;6.80;81.40;;;;;;5034560;28;20062;-80
2021/12/07 07:58:47;;;;;;;6.80;6.40;;;6.90;81.50;;;;;;5031774;28;20490;-85
2021/12/07 08:01:13;;;;;;;6.60;6.30;;;6.90;81.50;;;;;;5049741;28;20072;-81
2021/12/07 08:03:39;;;;;;;7.07;6.67;;;6.90;81.50;;;;;;5047504;28;20045;-82
2021/12/07 08:06:05;;;;;;;6.47;6.17;;;6.90;81.40;;;;;;5048604;28;20029;-82
2021/12/07 08:08:31;;;;;;;6.60;6.30;;;7.00;81.50;;;;;;5048438;28;20040;-81
2021/12/07 08:10:57;;;;;;;7.30;6.77;;;7.00;81.50;;;;;;5050511;28;20037;-83
2021/12/07 08:13:23;;;;;;;6.37;6.07;;;7.10;81.40;;;;;;5049572;28;20029;-82
2021/12/07 08:15:50;;;;;;;6.93;6.53;;;7.10;81.30;;;;;;5035261;28;20529;-84
2021/12/07 08:18:16;;;;;;;6.93;6.63;;;7.20;81.30;;;;;;5033441;28;20040;-85
2021/12/07 08:20:43;;;;;;;7.20;6.80;;;7.20;81.20;;;;;;5050380;28;20044;-84
2021/12/07 08:23:09;;;;;;;8.17;7.77;;;7.30;81.30;;;;;;5031432;28;20041;-82
2021/12/07 08:25:37;;;;;;;6.87;6.57;;;7.30;81.20;;;;;;5051200;28;20036;-80
2021/12/07 08:28:14;;;;;;;6.77;6.47;;;7.30;81.10;;;;;;5045347;28;20028;-85
2021/12/07 08:30:41;;;;;;;6.83;6.53;;;7.30;81.10;;;;;;5054855;28;20041;-92
2021/12/07 08:33:07;;;;;;;6.73;6.33;;;7.40;81.20;;;;;;5056311;28;20044;-91
2021/12/07 08:35:34;;;;;;;6.43;6.13;;;7.50;81.30;;;;;;5058583;28;20037;-88
2021/12/07 08:38:00;;;;;;;6.37;6.07;;;7.60;81.30;;;;;;5040058;28;20048;-88
2021/12/07 08:40:28;;;;;;;7.47;7.17;;;7.70;81.20;;;;;;5042379;28;20045;-83
2021/12/07 08:42:54;;;;;;;7.10;6.80;;;7.80;81.10;;;;;;5036190;28;20501;-88
2021/12/07 08:45:22;;;;;;;7.63;7.23;;;8.00;81.10;;;;;;5014032;28;20072;-86
2021/12/07 08:47:48;;;;;;;6.83;6.53;;;8.10;81.00;;;;;;5045283;28;20055;-81
2021/12/07 08:50:19;;;;;;;35.83;7.88;;;8.10;80.90;;;;;;5050039;28;20033;-84
2021/12/07 08:52:46;;;;;;;6.85;6.55;;;8.20;81.00;;;;;;5051524;28;20021;-89
2021/12/07 09:00:28;;;;;;;7.20;6.90;;;8.40;80.80;;;;;;5050381;28;20111;-81
2021/12/07 09:02:54;;;;;;;7.72;7.32;;;8.50;80.80;;;;;;5047325;28;20064;-83
2021/12/07 09:05:20;;;;;;;7.95;7.35;;;8.60;80.90;;;;;;5031673;28;20494;-84
2021/12/07 09:07:46;;;;;;;7.22;6.82;;;8.60;80.90;;;;;;5049650;28;20043;-84
2021/12/07 09:10:13;;;;;;;8.55;7.97;;;8.60;80.90;;;;;;5033076;28;20036;-84
2021/12/07 09:12:39;;;;;;;6.85;6.55;;;8.60;81.00;;;;;;5048747;28;20394;-84
2021/12/07 09:15:06;;;;;;;6.85;6.55;;;8.50;81.10;;;;;;5053042;28;20025;-84
2021/12/07 09:17:32;;;;;;;7.40;7.10;;;8.60;81.40;;;;;;5049986;28;20028;-85
2021/12/07 09:19:58;;;;;;;7.38;7.07;;;8.60;81.50;;;;;;5050147;28;20041;-84
2021/12/07 09:22:25;;;;;;;7.80;7.43;;;8.60;81.60;;;;;;5033257;28;20500;-85
2021/12/07 09:24:51;;;;;;;7.73;7.33;;;8.60;81.60;;;;;;5031421;28;20052;-85
2021/12/07 09:27:17;;;;;;;7.40;7.10;;;8.60;81.90;;;;;;5032359;28;20041;-84
2021/12/07 09:29:44;;;;;;;7.53;7.03;;;8.60;81.60;;;;;;5049320;28;20048;-84
2021/12/07 09:32:10;;;;;;;7.27;6.97;;;8.70;81.60;;;;;;5048757;28;20037;-84
2021/12/07 09:34:36;;;;;;;7.82;7.43;;;8.70;81.50;;;;;;5050217;28;20033;-84
2021/12/07 09:37:02;;;;;;;7.30;7.00;;;8.70;81.50;;;;;;5049463;28;20032;-85
2021/12/07 09:39:28;;;;;;;7.45;7.07;;;8.70;81.40;;;;;;5049824;28;20049;-84
2021/12/07 09:41:55;;;;;;;8.03;7.43;;;8.80;81.50;;;;;;5049508;28;20037;-84
2021/12/07 09:44:22;;;;;;;7.90;7.50;;;8.80;81.50;;;;;;5049720;28;20028;-82
2021/12/07 09:46:48;;;;;;;7.88;7.50;;;8.80;81.60;;;;;;5048812;28;20398;-83
2021/12/07 09:49:14;;;;;;;7.85;7.47;;;8.80;81.50;;;;;;5049987;28;20033;-82
2021/12/07 09:51:40;;;;;;;7.68;7.28;;;8.80;81.60;;;;;;5049655;28;20474;-83
2021/12/07 09:54:08;;;;;;;7.15;6.85;;;8.90;81.60;;;;;;5049681;28;20470;-83
2021/12/07 09:56:34;;;;;;;7.63;7.22;;;8.90;81.60;;;;;;5036264;28;20398;-84
2021/12/07 09:59:00;;;;;;;7.57;7.10;;;9.00;81.60;;;;;;5053271;28;20040;-83
2021/12/07 10:01:27;;;;;;;7.00;6.70;;;9.00;81.50;;;;;;5036338;28;20398;-81
2021/12/07 10:03:53;;;;;;;8.15;7.47;;;9.00;81.50;;;;;;5052890;28;20032;-82
2021/12/07 10:06:20;;;;;;;7.88;7.47;;;9.10;81.50;;;;;;5035446;28;20044;-81
2021/12/07 10:08:47;;;;;;;8.63;7.82;;;9.10;81.50;;;;;;5035918;28;20032;-81
2021/12/07 10:11:13;;;;;;;8.20;7.80;;;9.10;81.60;;;;;;5050118;28;20036;-86
2021/12/07 10:13:41;;;;;;;8.93;8.15;;;9.10;81.70;;;;;;5052121;28;20025;-89
2021/12/07 10:16:07;;;;;;;9.35;8.88;;;9.20;81.70;;;;;;5045642;28;20037;-85
2021/12/07 10:18:36;;;;;;;8.13;7.70;;;9.10;81.70;;;;;;5035623;28;20037;-86
2021/12/07 10:21:10;;;;;;;7.90;7.50;;;9.20;81.70;;;;;;5042480;28;20048;-85
2021/12/07 10:23:38;;;;;;;7.87;7.47;;;9.20;81.60;;;;;;5049351;28;20025;-82
2021/12/07 10:26:05;;;;;;;7.53;7.20;;;9.20;81.60;;;;;;5035017;28;20045;-82
2021/12/07 10:28:37;;;;;;;7.47;7.13;;;9.20;81.60;;;;;;5053533;28;20025;-81
2021/12/07 10:31:13;;;;;;;8.13;7.72;;;9.30;81.80;;;;;;5051097;28;20037;-81
2021/12/07 10:33:43;;;;;;;8.40;8.00;;;9.30;81.80;;;;;;5050051;28;20032;-81
2021/12/07 10:36:24;;;;;;;9.32;8.35;;;9.30;81.80;;;;;;5049693;28;20040;-82
2021/12/07 10:38:56;;;;;;;7.57;7.28;;;9.30;81.80;;;;;;5036116;28;20037;-82
2021/12/07 10:41:24;;;;;;;8.27;7.88;;;9.30;81.90;;;;;;5052291;28;20037;-86
2021/12/07 10:43:55;;;;;;;7.53;7.22;;;9.40;81.90;;;;;;5053134;28;20029;-90
2021/12/07 10:46:42;;;;;;;8.75;8.35;;;9.40;81.90;;;;;;5054062;28;20041;-84
2021/12/07 10:49:46;;;;;;;7.45;7.15;;;9.50;81.90;;;;;;5048728;28;20041;-87
2021/12/07 10:52:16;;;;;;;12.70;7.10;;;9.50;81.80;;;;;;5051547;28;20470;-86
2021/12/07 10:55:08;;;;;;;8.00;7.55;;;9.50;81.70;;;;;;5035814;28;20045;-86
2021/12/07 10:57:44;;;;;;;9.10;8.27;;;9.60;81.80;;;;;;5045840;28;20032;-86
2021/12/07 11:00:25;;;;;;;7.65;7.28;;;9.60;81.70;;;;;;5052002;28;20037;-84
2021/12/07 11:02:58;;;;;;;8.90;8.30;;;9.70;81.70;;;;;;5049451;28;20024;-82
2021/12/07 11:05:36;;;;;;;7.03;6.72;;;9.80;81.70;;;;;;5049347;28;20041;-85
2021/12/07 11:08:03;;;;;;;17.85;7.78;;;9.90;81.60;;;;;;5052001;28;20482;-86
2021/12/07 11:10:32;;;;;;;7.28;6.97;;;9.90;81.50;;;;;;5044511;28;20040;-84
2021/12/07 11:13:12;;;;;;;8.07;7.43;;;10.00;81.50;;;;;;5047951;28;20044;-85
2021/12/07 11:15:49;;;;;;;6.95;6.65;;;10.00;81.40;;;;;;5051742;28;20037;-82
2021/12/07 11:18:17;;;;;;;7.00;6.70;;;10.10;81.30;;;;;;5034100;28;20067;-82
2021/12/07 11:20:43;;;;;;;6.70;6.40;;;10.20;81.30;;;;;;5050742;28;20055;-82
2021/12/07 11:23:18;;;;;;;7.55;7.22;;;10.20;81.20;;;;;;5049832;28;20049;-82
2021/12/07 11:31:27;;;;;;;7.22;6.93;;;10.40;81.20;;;;;;5049487;28;20040;-85
2021/12/07 11:34:14;;;;;;;7.50;7.10;;;10.40;81.20;;;;;;5051796;28;20366;-83
2021/12/07 11:36:40;;;;;;;7.43;6.97;;;10.40;81.10;;;;;;5051627;28;20044;-84
2021/12/07 11:39:26;;;;;;;7.43;7.13;;;10.40;81.10;;;;;;5051960;28;20056;-83
2021/12/07 11:41:56;;;;;;;8.20;7.53;;;10.50;81.20;;;;;;5034169;28;20040;-83
2021/12/07 11:44:22;;;;;;;8.38;7.97;;;10.50;81.20;;;;;;5033757;28;20033;-82
2021/12/07 11:46:49;;;;;;;9.20;8.55;;;10.50;81.20;;;;;;5051005;28;20045;-83
2021/12/07 11:49:21;;;;;;;8.75;8.15;;;10.50;81.20;;;;;;5049441;28;20032;-88
2021/12/07 11:51:49;;;;;;;8.10;7.70;;;10.50;81.20;;;;;;5048944;28;20501;-89
2021/12/07 11:54:16;;;;;;;8.07;7.68;;;10.50;81.40;;;;;;5034913;28;20037;-89
2021/12/07 11:56:44;;;;;;;8.35;7.90;;;10.40;81.40;;;;;;5034285;28;20520;-89
2021/12/07 11:59:10;;;;;;;7.72;7.35;;;10.50;81.40;;;;;;5022813;28;20500;-88
2021/12/07 12:01:36;;;;;;;7.55;7.18;;;10.40;81.50;;;;;;5033465;28;20402;-89
2021/12/07 12:04:02;;;;;;;7.97;7.57;;;10.40;81.50;;;;;;5032330;28;20029;-89
2021/12/07 12:06:29;;;;;;;17.98;8.43;;;10.40;81.60;;;;;;5031404;28;20053;-90
2021/12/07 12:08:56;;;;;;;8.00;7.60;;;10.40;81.70;;;;;;5049153;28;20025;-89
2021/12/07 12:11:51;;;;;;;8.55;8.15;;;10.40;81.70;;;;;;5030823;28;20045;-90
2021/12/07 12:14:33;;;;;;;7.97;7.57;;;10.30;81.70;;;;;;5019030;28;20052;-88
2021/12/07 12:17:08;;;;;;;8.02;7.63;;;10.40;81.80;;;;;;5049240;28;20037;-87
2021/12/07 12:19:55;;;;;;;9.48;9.05;;;10.30;81.80;;;;;;5035409;28;20048;-86
2021/12/07 12:22:34;;;;;;;8.35;7.95;;;10.30;81.80;;;;;;5067002;28;20048;-84
2021/12/07 12:25:04;;;;;;;8.18;7.78;;;10.30;81.80;;;;;;5049897;28;20036;-88
2021/12/07 12:27:33;;;;;;;7.93;7.53;;;10.30;81.90;;;;;;5034187;28;20048;-88
2021/12/07 12:30:04;;;;;;;8.13;7.72;;;10.30;81.90;;;;;;5032917;28;20040;-88
2021/12/07 12:32:36;;;;;;;7.75;7.43;;;10.30;82.00;;;;;;5049461;28;20029;-88
2021/12/07 12:35:06;;;;;;;9.98;9.07;;;10.30;82.00;;;;;;5051861;28;20033;-87
2021/12/07 12:37:32;;;;;;;12.70;12.10;;;10.30;82.00;;;;;;5050768;28;20036;-85
2021/12/07 12:40:05;;;;;;;8.00;7.50;;;10.30;82.00;;;;;;5049936;28;20049;-86
2021/12/07 12:42:37;;;;;;;7.97;7.60;;;10.30;82.00;;;;;;5049478;28;20504;-87
2021/12/07 12:45:22;;;;;;;8.07;7.68;;;10.20;82.00;;;;;;5049461;28;20521;-87
2021/12/07 12:48:07;;;;;;;8.93;8.52;;;10.30;82.00;;;;;;5033527;28;20045;-86
2021/12/07 12:50:34;;;;;;;9.10;8.55;;;10.20;81.90;;;;;;5049506;28;20032;-87
2021/12/07 12:53:06;;;;;;;8.73;8.23;;;10.20;81.90;;;;;;5033560;28;20043;-86
2021/12/07 12:55:33;;;;;;;;;;;10.20;82.00;;;;;;5032533;28;20044;-86
2021/12/07 12:58:00;;;;;;;7.85;7.50;;;10.20;82.00;;;;;;5049923;28;19909;-86
2021/12/07 13:00:58;;;;;;;8.38;7.97;;;10.20;82.10;;;;;;5032862;28;20115;-86
2021/12/07 13:03:25;;;;;;;8.50;8.10;;;10.10;82.00;;;;;;5051274;28;20056;-86
2021/12/07 13:06:00;;;;;;;8.85;8.45;;;10.10;82.00;;;;;;5049882;28;20025;-86
2021/12/07 13:08:26;;;;;;;7.53;7.18;;;10.10;82.00;;;;;;5049724;28;20504;-85
2021/12/07 13:11:03;;;;;;;8.60;8.18;;;10.20;82.10;;;;;;5049659;28;20033;-86
2021/12/07 13:13:30;;;;;;;9.93;9.43;;;10.20;82.10;;;;;;5032307;28;20386;-86
2021/12/07 13:15:57;;;;;;;10.40;9.80;;;10.20;82.10;;;;;;5049042;28;20425;-85
2021/12/07 13:18:27;;;;;;;9.43;9.02;;;10.20;82.10;;;;;;5051058;28;20028;-85
2021/12/07 13:20:53;;;;;;;8.35;7.95;;;10.20;82.10;;;;;;5050310;28;20041;-85
2021/12/07 13:23:19;;;;;;;8.55;8.13;;;10.20;82.10;;;;;;5049302;28;20363;-85
2021/12/07 13:25:50;;;;;;;7.07;6.78;;;10.20;82.10;;;;;;5031841;28;20060;-85
2021/12/07 13:28:22;;;;;;;8.00;7.60;;;10.20;82.10;;;;;;5049064;28;20044;-85
2021/12/07 13:30:50;;;;;;;9.63;8.60;;;10.20;82.10;;;;;;5053082;28;20416;-85
2021/12/07 13:33:37;;;;;;;8.35;7.95;;;10.20;82.10;;;;;;5051423;28;20412;-86
2021/12/07 13:36:28;;;;;;;8.07;7.68;;;10.20;82.10;;;;;;5036138;28;20497;-86
2021/12/07 13:38:59;;;;;;;9.38;8.95;;;10.20;82.10;;;;;;5052546;28;20060;-86
2021/12/07 13:41:25;;;;;;;8.43;8.03;;;10.10;82.10;;;;;;5037039;28;20037;-85
2021/12/07 13:43:51;;;;;;;8.93;8.52;;;10.20;82.20;;;;;;5053213;28;20359;-85
2021/12/07 13:46:20;;;;;;;8.95;8.48;;;10.20;82.20;;;;;;5053258;28;20036;-85
2021/12/07 13:48:48;;;;;;;7.95;7.55;;;10.20;82.20;;;;;;5052733;28;20390;-84
2021/12/07 13:51:15;;;;;;;14.20;8.98;;;10.10;82.20;;;;;;5053322;28;20044;-84
2021/12/07 13:53:42;;;;;;;8.30;7.90;;;10.10;82.20;;;;;;5035162;28;20649;-84
2021/12/07 13:56:09;;;;;;;7.60;7.20;;;10.10;82.30;;;;;;5053421;28;20032;-86
2021/12/07 13:58:53;;;;;;;8.35;7.95;;;10.10;82.30;;;;;;5053839;28;20033;-84
2021/12/07 14:01:19;;;;;;;8.27;7.88;;;10.10;82.30;;;;;;5052329;28;20221;-85
2021/12/07 14:03:45;;;;;;;7.75;7.40;;;10.10;82.30;;;;;;5052948;28;20052;-85
2021/12/07 14:06:12;;;;;;;9.35;8.07;;;10.10;82.30;;;;;;5052596;28;20486;-85
2021/12/07 14:08:38;;;;;;;9.13;8.73;;;10.10;82.40;;;;;;5052409;28;20036;-86
2021/12/07 14:11:04;;;;;;;8.20;7.80;;;10.10;82.40;;;;;;5036021;28;20056;-86
2021/12/07 14:13:30;;;;;;;8.02;7.63;;;10.10;82.40;;;;;;5053536;28;20052;-85
2021/12/07 14:15:56;;;;;;;12.40;11.80;;;10.10;82.40;;;;;;5050989;28;20037;-85
2021/12/07 14:18:26;;;;;;;9.77;9.35;;;10.10;82.40;;;;;;5051265;28;20112;-85
2021/12/07 14:20:57;;;;;;;8.13;7.72;;;10.10;82.40;;;;;;5032956;28;20045;-85
2021/12/07 14:23:33;;;;;;;8.30;7.90;;;10.10;82.40;;;;;;5050806;28;20029;-85
2021/12/07 14:26:05;;;;;;;8.20;7.80;;;10.20;82.40;;;;;;5050348;28;20033;-84
2021/12/07 14:28:39;;;;;;;8.93;8.52;;;10.20;82.40;;;;;;5035005;28;20041;-84
2021/12/07 14:31:12;;;;;;;8.23;7.82;;;10.20;82.40;;;;;;5052066;28;20401;-84
2021/12/07 14:33:42;;;;;;;8.68;8.05;;;10.10;82.30;;;;;;5028028;28;20044;-84
2021/12/07 14:36:09;;;;;;;8.40;8.00;;;10.20;82.40;;;;;;5030786;28;20037;-84
2021/12/07 14:38:35;;;;;;;8.10;7.70;;;10.20;82.40;;;;;;5052218;28;20275;-83
2021/12/07 14:41:08;;;;;;;8.35;7.95;;;10.20;82.40;;;;;;5032743;28;20066;-84